Latest Weather Observations for Parawa West

IDS60801

Issued at 3:41 pm CDT Saturday 31 October 2020 (issued every 10 minutes, with the page automatically refreshed every 10 minutes)

About weather observations | Map of weather stations | Latest weather observations for SA | Other Formats
Station Details ID: 023875 Name: SECOND VALLEY FOREST AWS Lat: -35.57 Lon: 138.29 Height: 341.0 m
Data from the previous 72 hours. | See also: Recent months at Parawa West
Date/Time
CDT
Temp
°C
App
Temp
°C
Dew
Point
°C
Rel
Hum
%
Delta-T
°C
Wind Press
QNH
hPa
Press
MSL
hPa
Rain since
9am
mm
Dir  Spd
km/h
Gust
km/h
Spd
kts
Gust
kts
31/03:30pm 11.3 6.1 10.4 94 0.5 SSE 28 37 15 20 1018.4 1018.2 0.0
31/03:00pm 10.6 5.7 10.0 96 0.3 SSE 26 33 14 18 1018.6 1018.4 0.0
31/02:30pm 11.9 6.7 10.1 89 0.9 SSE 28 35 15 19 1018.8 1018.6 0.0
31/02:00pm 12.3 7.4 10.0 86 1.2 SSE 26 37 14 20 1018.8 1018.6 0.0
31/01:30pm 12.6 8.2 10.5 87 1.1 SSE 24 32 13 17 1018.8 1018.6 0.0
31/01:00pm 11.2 7.2 10.6 96 0.3 SSE 22 30 12 16 1018.9 1018.7 0.0
31/12:30pm 10.6 5.3 10.0 96 0.3 SSE 28 37 15 20 1018.9 1018.7 0.0
31/12:00pm 10.7 5.7 9.6 93 0.6 SSE 26 33 14 18 1018.9 1018.7 0.0
31/11:30am 12.2 6.8 9.6 84 1.3 SSE 28 33 15 18 1018.8 1018.6 0.0
31/11:00am 12.3 7.9 9.1 81 1.6 SSE 22 33 12 18 1018.9 1018.7 0.0
31/10:30am 12.2 8.0 9.9 86 1.2 SSE 22 30 12 16 1018.7 1018.5 0.0
31/10:00am 10.5 5.5 9.6 94 0.5 SSE 26 35 14 19 1018.6 1018.4 0.0
31/09:30am 10.6 6.3 9.4 92 0.6 SSE 22 32 12 17 1018.7 1018.5 0.0
31/09:00am 10.7 5.9 8.8 88 1.0 SSE 24 32 13 17 1018.5 1018.3 1.2
31/08:30am 10.5 6.0 8.6 88 0.9 SSE 22 30 12 16 1018.2 1018.0 1.0
31/08:00am 10.4 5.5 8.5 88 0.9 SSE 24 32 13 17 1017.9 1017.7 1.0
31/07:30am 10.3 5.9 8.9 91 0.7 SSE 22 30 12 16 1017.8 1017.6 1.0
31/07:00am 10.3 5.5 8.7 90 0.8 SSE 24 33 13 18 1017.3 1017.0 1.0
31/06:30am 10.1 5.7 9.0 93 0.6 SE 22 30 12 16 1016.6 1016.4 1.0
31/06:00am 10.3 5.2 9.2 93 0.6 SSE 26 37 14 20 1016.3 1016.1 1.0
31/05:30am 10.3 5.6 9.2 93 0.6 SE 24 33 13 18 1016.1 1015.9 1.0
31/05:00am 10.3 4.8 9.2 93 0.6 SE 28 41 15 22 1015.9 1015.7 1.0
31/04:30am 10.2 4.3 9.1 93 0.6 SE 30 41 16 22 1015.7 1015.5 1.0
31/04:00am 10.3 4.9 9.4 94 0.5 SE 28 39 15 21 1015.8 1015.6 1.0
31/03:30am 10.3 4.1 9.2 93 0.6 SSE 32 44 17 24 1015.9 1015.7 1.0
31/03:00am 10.4 4.2 9.5 94 0.5 SSE 32 43 17 23 1015.9 1015.7 1.0
31/02:30am 10.5 5.6 9.9 96 0.3 SSE 26 35 14 19 1016.1 1015.9 1.0
31/02:00am 10.6 5.4 10.1 97 0.3 SSE 28 41 15 22 1016.1 1015.9 1.0
31/01:30am 10.6 5.4 10.3 98 0.2 SSE 28 41 15 22 1016.6 1016.4 0.6
31/01:00am 10.7 5.2 10.4 98 0.2 SSE 30 43 16 23 1016.5 1016.3 0.4
31/12:30am 10.8 5.3 10.5 98 0.2 SSE 30 44 16 24 1016.4 1016.2 0.4
31/12:00am 10.9 5.4 10.6 98 0.2 SSE 30 43 16 23 1016.4 1016.2 0.4
 
Date/Time
CDT
Temp
°C
App
Temp
°C
Dew
Point
°C
Rel
Hum
%
Delta-T
°C
Wind Press
QNH
hPa
Press
MSL
hPa
Rain since
9am
mm
Dir  Spd
km/h
Gust
km/h
Spd
kts
Gust
kts
30/11:30pm 11.0 5.9 10.5 97 0.3 SSE 28 43 15 23 1016.3 1016.1 0.2
30/11:00pm 10.9 4.9 10.1 95 0.4 SSE 32 48 17 26 1016.5 1016.3 0.2
30/10:33pm 10.9 4.8 10.3 96 0.3 SSE 33 52 18 28 1016.3 1016.1 0.2
30/10:30pm 11.1 4.7 10.6 97 0.3 S 35 46 19 25 1016.4 1016.2 0.2
30/10:10pm 11.2 5.1 10.3 94 0.5 SSE 33 52 18 28 1015.9 1015.7 0.2
30/10:00pm 11.3 4.1 10.4 94 0.5 SSE 39 54 21 29 1015.7 1015.5 0.2
30/09:30pm 11.3 4.2 10.8 97 0.3 SSE 39 52 21 28 1015.6 1015.4 0.2
30/09:00pm 11.3 5.3 10.8 97 0.3 SSE 33 46 18 25 1015.6 1015.4 0.2
30/08:30pm 11.2 5.7 10.7 97 0.3 S 30 46 16 25 1015.4 1015.2 0.2
30/08:00pm 11.1 6.4 10.5 96 0.3 S 26 41 14 22 1015.4 1015.2 0.2
30/07:30pm 11.1 5.5 10.3 95 0.4 S 30 39 16 21 1015.4 1015.2 0.2
30/07:00pm 11.2 6.5 10.6 96 0.3 S 26 35 14 19 1015.3 1015.1 0.2
30/06:30pm 11.5 6.4 10.7 95 0.4 S 28 41 15 22 1015.1 1014.9 0.2
30/06:00pm 11.6 6.9 10.8 95 0.4 S 26 37 14 20 1014.9 1014.6 0.2
30/05:30pm 11.9 7.7 11.1 95 0.4 S 24 35 13 19 1014.7 1014.4 0.2
30/05:00pm 11.9 7.6 10.8 93 0.6 SSW 24 33 13 18 1014.6 1014.3 0.2
30/04:30pm 12.3 7.7 11.0 92 0.7 SSW 26 35 14 19 1014.5 1014.2 0.2
30/04:00pm 12.0 6.7 11.1 94 0.5 SSW 30 44 16 24 1014.0 1013.8 0.2
30/03:30pm 12.2 6.9 11.1 93 0.6 S 30 41 16 22 1014.6 1014.3 0.2
30/03:00pm 11.7 6.9 10.3 91 0.7 S 26 37 14 20 1014.9 1014.6 0.2
30/02:30pm 12.2 7.1 10.6 90 0.8 S 28 41 15 22 1014.8 1014.5 0.2
30/02:00pm 12.1 5.6 10.5 90 0.8 S 35 52 19 28 1014.3 1014.0 0.2
30/01:30pm 12.2 4.6 10.4 89 0.9 S 41 52 22 28 1013.7 1013.5 0.2
30/01:00pm 11.5 4.7 10.6 94 0.5 S 37 46 20 25 1014.0 1013.8 0.2
30/12:30pm 12.6 6.9 11.7 94 0.5 S 33 43 18 23 1014.3 1014.0 0.2
30/12:00pm 11.9 6.2 11.1 95 0.4 S 32 43 17 23 1014.3 1014.0 0.2
30/11:30am 11.0 5.5 10.4 96 0.3 S 30 44 16 24 1014.4 1014.1 0.2
30/11:00am 11.3 5.1 10.2 93 0.6 S 33 44 18 24 1014.4 1014.1 0.0
30/10:30am 11.1 6.4 10.5 96 0.3 S 26 39 14 21 1014.2 1013.9 0.0
30/10:00am 11.1 5.6 10.5 96 0.3 S 30 41 16 22 1014.0 1013.8 0.0
30/09:30am 10.8 5.7 10.5 98 0.2 S 28 39 15 21 1013.8 1013.6 0.0
30/09:00am 10.7 4.2 10.5 99 0.1 S 35 50 19 27 1013.5 1013.3 19.4
30/08:30am 10.5 4.0 10.5 100 0.0 S 35 48 19 26 1013.1 1012.9 19.4
30/08:00am 10.6 3.4 10.6 100 0.0 S 39 57 21 31 1012.8 1012.6 19.4
30/07:36am 10.2 3.7 10.2 100 0.0 S 35 54 19 29 1012.4 1012.1 19.2
30/07:30am 10.4 3.9 10.4 100 0.0 S 35 52 19 28 1012.4 1012.1 19.2
30/07:00am 10.2 2.1 10.2 100 0.0 S 43 61 23 33 1011.9 1011.6 19.2
30/06:48am 10.3 3.4 10.3 100 0.0 SSE 37 57 20 31 1011.8 1011.5 19.0
30/06:30am 10.0 2.6 10.0 100 0.0 S 39 54 21 29 1011.7 1011.4 18.4
30/06:18am 10.4 3.5 10.4 100 0.0 S 37 56 20 30 1011.4 1011.1 17.2
30/06:00am 10.4 3.2 10.4 100 0.0 S 39 56 21 30 1011.3 1011.0 16.8
30/05:43am 10.3 3.4 10.3 100 0.0 SSE 37 56 20 30 1011.1 1010.8 16.4
30/05:30am 10.3 4.4 10.3 100 0.0 SSE 32 48 17 26 1010.9 1010.7 15.6
30/05:03am 9.9 3.3 9.9 100 0.0 S 35 56 19 30 1010.7 1010.5 14.8
30/05:00am 10.0 3.4 10.0 100 0.0 S 35 46 19 25 1010.8 1010.6 14.8
30/04:40am 9.9 2.9 9.9 100 0.0 S 37 57 20 31 1010.7 1010.5 13.6
30/04:30am 9.8 2.4 9.8 100 0.0 S 39 56 21 30 1010.4 1010.2 13.2
30/04:00am 9.8 3.1 9.8 100 0.0 S 35 46 19 25 1010.4 1010.2 12.6
30/03:42am 10.0 3.0 10.0 100 0.0 S 37 61 20 33 1010.2 1010.0 11.0
30/03:30am 10.1 3.5 10.1 100 0.0 S 35 48 19 26 1010.2 1010.0 10.4
30/03:00am 10.0 2.3 10.0 100 0.0 S 41 59 22 32 1010.0 1009.7 9.6
30/02:54am 10.1 2.8 10.1 100 0.0 S 39 59 21 32 1009.9 1009.6 9.6
30/02:30am 10.2 1.6 10.2 100 0.0 S 46 61 25 33 1010.0 1009.7 9.0
30/02:13am 10.1 3.5 10.1 100 0.0 S 35 54 19 29 1009.9 1009.6 8.2
30/02:00am 10.3 3.8 10.3 100 0.0 SSE 35 54 19 29 1009.9 1009.6 5.4
30/01:30am 10.2 2.9 10.2 100 0.0 S 39 59 21 32 1009.9 1009.6 4.8
30/01:07am 10.2 2.9 10.2 100 0.0 S 39 59 21 32 1010.0 1009.7 4.6
30/01:00am 10.2 2.1 10.2 100 0.0 S 43 56 23 30 1010.1 1009.9 4.6
30/12:33am 10.2 2.5 10.1 99 0.1 S 41 59 22 32 1010.0 1009.7 4.4
30/12:30am 10.2 2.1 10.1 99 0.1 S 43 59 23 32 1010.1 1009.9 4.4
30/12:11am 9.9 2.9 9.8 99 0.1 S 37 67 20 36 1010.0 1009.7 3.8
30/12:00am 10.2 3.3 10.2 100 0.0 SSW 37 54 20 29 1010.0 1009.7 3.8
 
Date/Time
CDT
Temp
°C
App
Temp
°C
Dew
Point
°C
Rel
Hum
%
Delta-T
°C
Wind Press
QNH
hPa
Press
MSL
hPa
Rain since
9am
mm
Dir  Spd
km/h
Gust
km/h
Spd
kts
Gust
kts
29/11:30pm 9.9 2.9 9.8 99 0.1 SSW 37 63 20 34 1010.0 1009.7 3.4
29/11:00pm 10.4 2.3 10.2 99 0.1 S 43 65 23 35 1009.8 1009.5 2.6
29/10:30pm 10.7 3.5 10.5 99 0.1 S 39 61 21 33 1009.5 1009.2 2.6
29/10:00pm 10.9 2.4 10.6 98 0.2 S 46 65 25 35 1009.4 1009.1 1.8
29/09:55pm 10.9 2.4 10.6 98 0.2 S 46 65 25 35 1009.2 1008.9 1.8
29/09:30pm 10.7 3.1 10.5 99 0.1 S 41 57 22 31 1009.1 1008.8 1.8
29/09:00pm 11.1 5.3 10.9 99 0.1 S 32 54 17 29 1008.7 1008.4 1.8
29/08:31pm 11.0 4.6 10.8 99 0.1 S 35 54 19 29 1008.5 1008.2 1.8
29/08:30pm 11.0 4.2 10.8 99 0.1 S 37 54 20 29 1008.5 1008.2 1.8
29/08:21pm 11.0 5.5 10.7 98 0.2 S 30 54 16 29 1008.4 1008.1 1.8
29/08:00pm 11.5 5.8 11.0 97 0.3 SSW 32 43 17 23 1008.2 1007.9 1.8
29/07:56pm 11.4 6.4 10.8 96 0.3 SSW 28 43 15 23 1008.1 1007.8 1.8
29/07:30pm 12.6 11.3 11.2 91 0.8 WSW 9 19 5 10 1007.7 1007.5 0.0
29/07:00pm 12.4 9.5 11.1 92 0.7 W 17 24 9 13 1007.6 1007.4 0.0
29/06:30pm 12.5 9.1 11.1 91 0.7 W 20 30 11 16 1007.4 1007.1 0.0
29/06:00pm 12.9 9.0 10.8 87 1.1 W 22 33 12 18 1007.2 1006.9 0.0
29/05:30pm 13.4 8.8 10.9 85 1.3 WNW 26 37 14 20 1007.0 1006.7 0.0
29/05:00pm 13.4 8.1 11.3 87 1.1 WNW 30 43 16 23 1006.9 1006.6 0.0
29/04:52pm 13.3 8.4 11.2 87 1.1 WNW 28 46 15 25 1006.9 1006.6 0.0
29/04:30pm 13.5 9.3 11.2 86 1.2 WNW 24 41 13 22 1007.0 1006.7 0.0
29/04:12pm 13.7 8.3 10.9 83 1.5 WNW 30 48 16 26 1007.1 1006.8 0.0
29/04:00pm 13.6 8.6 10.8 83 1.5 WNW 28 44 15 24 1007.0 1006.7 0.0
29/03:39pm 14.1 9.1 10.9 81 1.7 WNW 28 48 15 26 1007.2 1006.9 0.0
29/03:30pm 14.3 9.0 11.1 81 1.7 WNW 30 48 16 26 1007.3 1007.0 0.0
29/03:00pm 14.3 9.0 11.1 81 1.7 WNW 30 48 16 26 1007.6 1007.4 0.0
29/02:43pm 14.6 9.5 10.6 77 2.1 WNW 28 48 15 26 1007.5 1007.2 0.0
29/02:30pm 15.0 10.8 11.0 77 2.2 WNW 24 41 13 22 1007.7 1007.5 0.0
29/02:00pm 15.2 10.0 10.4 73 2.6 WNW 28 44 15 24 1008.1 1007.8 0.0
29/01:30pm 15.0 10.2 11.8 81 1.8 WNW 28 43 15 23 1007.8 1007.6 0.0
29/01:00pm 15.0 10.9 12.7 86 1.3 NW 26 39 14 21 1008.1 1007.8 0.0
29/12:30pm 14.8 10.8 13.0 89 1.0 NW 26 39 14 21 1008.2 1007.9 0.0
29/12:00pm 15.1 11.5 13.1 88 1.1 NW 24 37 13 20 1008.6 1008.3 0.0
29/11:30am 14.0 11.0 12.7 92 0.7 NW 20 32 11 17 1009.1 1008.8 0.0
29/11:00am 14.5 11.8 11.7 83 1.5 NNW 17 35 9 19 1009.3 1009.0 0.0
29/10:30am 14.1 13.0 10.5 79 1.9 NNW 7 15 4 8 1009.4 1009.1 0.0
29/10:05am 14.3 10.7 9.7 74 2.4 NW 19 44 10 24 1009.8 1009.5 0.0
29/10:00am 14.9 12.9 8.8 67 3.2 NNW 9 20 5 11 1009.0 1008.7 0.0
29/09:30am 15.6 14.0 8.8 64 3.5 WNW 7 19 4 10 1008.5 1008.2 0.0
29/09:00am 14.7 12.9 8.0 64 3.4 NNE 7 13 4 7 1009.1 1008.8 0.2
29/08:30am 15.8 13.7 8.3 61 3.9 NE 9 22 5 12 1009.4 1009.1 0.2
29/08:00am 14.5 12.7 8.0 65 3.3 NNE 7 15 4 8 1009.7 1009.4 0.2
29/07:30am 13.8 12.5 7.8 67 3.0 NE 4 17 2 9 1010.0 1009.7 0.2
29/07:00am 13.5 12.1 7.3 66 3.1 SE 4 6 2 3 1010.1 1009.9 0.2
29/06:30am 13.4 12.4 7.4 67 3.0 E 2 7 1 4 1010.2 1010.0 0.2
29/06:00am 13.8 11.8 6.4 61 3.6 NNW 6 11 3 6 1010.9 1010.7 0.2
29/05:30am 14.0 11.4 5.9 58 3.9 NW 9 13 5 7 1011.1 1010.8 0.2
29/05:00am 13.9 11.3 6.0 59 3.8 NW 9 13 5 7 1010.8 1010.6 0.2
29/04:30am 12.3 11.0 7.6 73 2.3 ENE 4 7 2 4 1010.7 1010.5 0.2
29/04:00am 10.7 9.7 7.2 79 1.7 ENE 2 6 1 3 1010.3 1010.1 0.2
29/03:30am 10.2 9.0 6.5 78 1.8 NNE 2 6 1 3 1010.2 1010.0 0.2
29/03:00am 11.0 8.6 6.9 76 2.0 NNE 9 15 5 8 1010.4 1010.2 0.2
29/02:30am 11.8 8.6 6.7 71 2.5 NE 13 19 7 10 1010.9 1010.7 0.2
29/02:00am 12.2 8.6 6.9 70 2.6 NE 15 22 8 12 1011.7 1011.4 0.2
29/01:30am 12.7 10.7 7.2 69 2.7 NNE 7 17 4 9 1012.3 1012.0 0.2
29/01:00am 13.3 8.9 7.5 68 2.9 ENE 20 26 11 14 1012.7 1012.5 0.2
29/12:30am 13.5 11.9 7.9 69 2.8 NE 6 7 3 4 1014.5 1014.2 0.2
29/12:00am 12.8 10.8 7.3 69 2.7 E 7 9 4 5 1015.1 1014.9 0.2
 
Date/Time
CDT
Temp
°C
App
Temp
°C
Dew
Point
°C
Rel
Hum
%
Delta-T
°C
Wind Press
QNH
hPa
Press
MSL
hPa
Rain since
9am
mm
Dir  Spd
km/h
Gust
km/h
Spd
kts
Gust
kts
28/11:30pm 11.8 10.2 6.5 70 2.6 ESE 4 6 2 3 1015.6 1015.4 0.2
28/11:00pm 11.4 9.7 6.1 70 2.5 ESE 4 7 2 4 1016.1 1015.9 0.2
28/10:30pm 11.2 9.1 5.7 69 2.6 SE 6 6 3 3 1016.5 1016.3 0.2
28/10:00pm 10.8 8.8 6.4 74 2.1 SE 6 7 3 4 1016.9 1016.7 0.2
28/09:30pm 10.8 8.8 7.3 79 1.7 SE 7 9 4 5 1017.1 1016.9 0.2
28/09:00pm 11.4 10.0 9.0 85 1.2 ESE 6 6 3 3 1017.3 1017.0 0.2
28/08:30pm 11.3 10.2 9.9 91 0.7 ESE 6 9 3 5 1017.0 1016.8 0.2
28/08:00pm 11.9 11.2 10.0 88 1.0 SSE 4 6 2 3 1017.0 1016.8 0.2
28/07:30pm 12.8 12.1 10.2 84 1.4 SSE 4 6 2 3 1016.8 1016.6 0.2
28/07:00pm 13.6 12.7 10.8 83 1.5 SSE 6 6 3 3 1016.6 1016.4 0.2
28/06:30pm 14.4 12.9 10.4 77 2.1 S 9 13 5 7 1016.8 1016.6 0.2
28/06:00pm 17.9 14.4 7.3 50 5.4 WNW 15 28 8 15 1016.4 1016.2 0.2
28/05:30pm 18.2 14.3 5.4 43 6.3 WNW 15 26 8 14 1016.2 1016.0 0.2
28/05:00pm 18.5 15.9 6.0 44 6.3 W 9 15 5 8 1016.2 1016.0 0.2
28/04:30pm 17.9 14.9 5.8 45 6.0 NW 11 19 6 10 1016.2 1016.0 0.2
28/04:00pm 18.1 14.8 6.6 47 5.8 NW 13 22 7 12 1016.5 1016.3 0.2

Other formats

Comma delimited format used in spreadsheet applications
http://www.bom.gov.au/fwo/IDS60801/IDS60801.94811.axf

JavaScript Object Notation format (JSON) in row-major order
http://www.bom.gov.au/fwo/IDS60801/IDS60801.94811.json

Data quality

Most of these data are generated automatically and are frequently updated. Quality checks on data are not normally performed. It is possible for incorrect values to appear. Refer to information at About Latest Weather Observations and please check the disclaimer before using these data.